Time;durP1;ratioP1;P1;durP2;ratioP2;P2;SDS_P1;SDS_P2;PMS_P1;PMS_P2;Temp;Humidity;BMP_temperature;BMP_pressure;BME280_temperature;BME280_humidity;BME280_pressure;Samples;Min_cycle;Max_cycle;Signal;HPM_P1;HPM_P2
2023/12/20 00:01:19;;;;;;;2.90;2.45;;;;;;;7.15;67.90;97234.53;4900904;28;20129;-81
2023/12/20 00:03:45;;;;;;;3.50;2.78;;;;;;;7.13;68.86;97234.75;4903909;28;20041;-80
2023/12/20 00:06:10;;;;;;;2.85;2.30;;;;;;;7.13;69.00;97226.97;4920185;28;20026;-80
2023/12/20 00:08:36;;;;;;;5.05;2.92;;;;;;;7.25;68.77;97227.00;4890182;28;20181;-81
2023/12/20 00:11:01;;;;;;;3.13;2.28;;;;;;;7.23;68.65;97242.00;4926015;28;20080;-82
2023/12/20 00:13:26;;;;;;;4.13;2.50;;;;;;;7.34;68.22;97244.84;4910799;28;20120;-81
2023/12/20 00:15:52;;;;;;;4.25;2.83;;;;;;;7.15;68.83;97236.34;4925566;28;20216;-80
2023/12/20 00:18:18;;;;;;;3.70;2.53;;;;;;;7.27;69.29;97245.72;4910564;28;20952;-80
2023/12/20 00:20:44;;;;;;;3.83;3.08;;;;;;;7.37;68.41;97263.31;4926661;28;20030;-81
2023/12/20 00:23:09;;;;;;;3.53;2.55;;;;;;;7.39;68.33;97250.91;4909327;28;20072;-80
2023/12/20 00:25:35;;;;;;;3.60;2.20;;;;;;;7.29;68.68;97246.25;4908829;28;20398;-81
2023/12/20 00:28:01;;;;;;;3.25;2.38;;;;;;;7.36;68.37;97253.16;4926381;28;20033;-80
2023/12/20 00:30:26;;;;;;;3.35;2.60;;;;;;;7.11;68.71;97244.53;4926228;28;20339;-82
2023/12/20 00:32:51;;;;;;;3.60;2.55;;;;;;;7.35;68.74;97236.84;4907289;28;20361;-80
2023/12/20 00:35:17;;;;;;;3.58;2.60;;;;;;;7.39;68.59;97243.16;4909399;28;20049;-80
2023/12/20 00:37:43;;;;;;;2.85;1.90;;;;;;;7.32;69.33;97247.63;4914095;28;20954;-81
2023/12/20 00:40:09;;;;;;;2.38;1.60;;;;;;;7.27;68.44;97248.28;4929596;28;20025;-81
2023/12/20 00:42:35;;;;;;;3.42;2.33;;;;;;;7.23;68.07;97246.34;4897867;28;20057;-81
2023/12/20 00:45:01;;;;;;;3.38;2.30;;;;;;;7.43;68.67;97240.91;4903742;28;20021;-81
2023/12/20 00:47:26;;;;;;;2.55;2.30;;;;;;;7.29;68.51;97235.13;4911782;28;20819;-80
2023/12/20 00:49:52;;;;;;;3.97;2.00;;;;;;;7.26;68.43;97230.38;4914666;28;20808;-80
2023/12/20 00:52:17;;;;;;;2.70;1.60;;;;;;;7.33;68.34;97231.06;4910191;28;20133;-81
2023/12/20 00:54:46;;;;;;;3.67;1.70;;;;;;;7.28;67.83;97223.19;4912738;28;20034;-81
2023/12/20 00:57:11;;;;;;;3.35;1.83;;;;;;;7.29;67.69;97222.97;4912398;28;20057;-80
2023/12/20 00:59:37;;;;;;;2.40;1.77;;;;;;;7.42;68.02;97222.00;4914162;28;20061;-80
2023/12/20 01:02:02;;;;;;;2.05;1.45;;;;;;;7.33;67.97;97218.13;4914108;28;20511;-80
2023/12/20 01:04:27;;;;;;;2.00;1.63;;;;;;;7.41;68.06;97217.03;4928946;28;20042;-80
2023/12/20 01:06:53;;;;;;;2.08;1.38;;;;;;;7.47;67.70;97222.09;4912772;28;20049;-80
2023/12/20 01:09:19;;;;;;;2.47;1.67;;;;;;;7.30;67.94;97211.59;4931112;28;20026;-80
2023/12/20 01:11:46;;;;;;;3.05;1.77;;;;;;;7.48;67.15;97230.66;4930309;28;20625;-80
2023/12/20 01:14:12;;;;;;;2.03;1.52;;;;;;;7.34;67.87;97224.91;4914009;28;20781;-81
2023/12/20 01:16:37;;;;;;;2.40;1.60;;;;;;;7.38;67.49;97225.25;4930680;28;20354;-79
2023/12/20 01:19:03;;;;;;;3.00;1.70;;;;;;;7.23;67.92;97213.50;4931517;28;20344;-80
2023/12/20 01:21:28;;;;;;;2.15;1.52;;;;;;;7.22;68.46;97224.84;4939969;28;20041;-81
2023/12/20 01:23:54;;;;;;;2.53;1.63;;;;;;;7.43;68.07;97226.13;4921809;28;20058;-80
2023/12/20 01:26:19;;;;;;;2.00;1.60;;;;;;;7.45;67.45;97223.31;4918983;28;20085;-80
2023/12/20 01:28:44;;;;;;;2.65;1.60;;;;;;;7.41;67.81;97217.03;4898956;28;20512;-80
2023/12/20 01:31:10;;;;;;;4.25;2.10;;;;;;;7.36;68.52;97219.50;4931567;28;20208;-80
2023/12/20 01:33:35;;;;;;;2.00;1.48;;;;;;;7.41;68.01;97214.44;4916245;28;20228;-80
2023/12/20 01:36:01;;;;;;;2.42;1.67;;;;;;;7.45;67.81;97206.00;4897962;28;20192;-80
2023/12/20 01:38:26;;;;;;;2.63;1.73;;;;;;;7.43;68.50;97195.06;4903507;28;20323;-81
2023/12/20 01:40:52;;;;;;;2.75;1.75;;;;;;;7.47;67.26;97201.38;4920046;28;20255;-81
2023/12/20 01:43:17;;;;;;;1.88;1.40;;;;;;;7.51;68.36;97214.69;4903774;28;20729;-81
2023/12/20 01:45:43;;;;;;;2.75;1.80;;;;;;;7.46;67.63;97209.38;4911277;28;20511;-81
2023/12/20 01:48:08;;;;;;;1.98;1.48;;;;;;;7.54;67.19;97216.81;4901937;28;20092;-81
2023/12/20 01:50:36;;;;;;;2.88;1.77;;;;;;;7.54;67.41;97232.38;4910055;28;20223;-81
2023/12/20 01:53:02;;;;;;;2.17;1.65;;;;;;;7.42;68.67;97234.13;4896390;28;20080;-81
2023/12/20 01:55:30;;;;;;;3.22;2.08;;;;;;;7.42;68.67;97227.16;4914169;28;20042;-81
2023/12/20 01:57:56;;;;;;;2.95;1.70;;;;;;;7.48;67.16;97222.88;4897230;28;20334;-81
2023/12/20 02:00:26;;;;;;;4.07;2.28;;;;;;;7.42;68.18;97218.59;4912080;28;20267;-81
2023/12/20 02:02:53;;;;;;;2.97;2.08;;;;;;;7.49;69.04;97208.94;4919857;28;20356;-81
2023/12/20 02:05:19;;;;;;;2.60;1.92;;;;;;;7.46;68.56;97217.94;4913268;28;20827;-81
2023/12/20 02:07:44;;;;;;;2.95;1.85;;;;;;;7.54;68.19;97221.19;4898322;28;20028;-80
2023/12/20 02:10:09;;;;;;;2.53;1.67;;;;;;;7.55;68.56;97243.53;4913108;28;20506;-80
2023/12/20 02:12:35;;;;;;;2.85;2.10;;;;;;;7.54;68.54;97237.56;4930408;28;20770;-81
2023/12/20 02:15:01;;;;;;;3.38;2.17;;;;;;;7.46;67.48;97222.31;4913418;28;20714;-80
2023/12/20 02:17:27;;;;;;;4.07;2.10;;;;;;;7.61;66.86;97214.13;4943038;28;20129;-80
2023/12/20 02:19:52;;;;;;;3.85;2.13;;;;;;;7.51;68.07;97201.72;4932507;28;20032;-81
2023/12/20 02:22:18;;;;;;;3.17;1.95;;;;;;;7.56;67.95;97225.16;4894369;28;20045;-80
2023/12/20 02:24:43;;;;;;;3.22;2.10;;;;;;;7.52;67.15;97213.66;4901030;28;20240;-80
2023/12/20 02:27:09;;;;;;;2.90;1.83;;;;;;;7.57;68.10;97206.00;4929740;28;20029;-80
2023/12/20 02:29:35;;;;;;;4.10;2.20;;;;;;;7.48;68.56;97190.00;4913457;28;20220;-80
2023/12/20 02:32:01;;;;;;;3.10;1.95;;;;;;;7.55;68.02;97197.66;4921789;28;20607;-80
2023/12/20 02:34:26;;;;;;;3.70;2.20;;;;;;;7.45;68.54;97203.41;4917259;28;20057;-80
2023/12/20 02:36:52;;;;;;;2.63;2.33;;;;;;;7.54;68.08;97208.25;4928372;28;20781;-80
2023/12/20 02:39:18;;;;;;;4.15;2.58;;;;;;;7.64;67.83;97209.28;4928950;28;20292;-80
2023/12/20 02:41:44;;;;;;;4.10;2.67;;;;;;;7.56;68.71;97212.22;4897123;28;20026;-80
2023/12/20 02:44:09;;;;;;;3.80;2.45;;;;;;;7.58;68.07;97214.56;4911241;28;20069;-80
2023/12/20 02:46:35;;;;;;;3.17;2.25;;;;;;;7.64;67.44;97211.88;4910580;28;20861;-81
2023/12/20 02:49:00;;;;;;;4.53;2.55;;;;;;;7.56;68.52;97208.84;4913096;28;20033;-81
2023/12/20 02:51:25;;;;;;;3.63;2.60;;;;;;;7.56;68.48;97212.22;4912177;28;20776;-81
2023/12/20 02:53:51;;;;;;;4.10;3.33;;;;;;;7.53;68.03;97197.09;4912202;28;20087;-81
2023/12/20 02:56:16;;;;;;;4.15;2.97;;;;;;;7.64;68.47;97195.53;4912018;28;20025;-81
2023/12/20 02:58:42;;;;;;;4.00;3.10;;;;;;;7.66;68.69;97201.28;4897041;28;20033;-81
2023/12/20 03:01:07;;;;;;;4.70;3.20;;;;;;;7.70;67.98;97210.19;4913576;28;20132;-81
2023/12/20 03:03:32;;;;;;;4.32;3.13;;;;;;;7.63;68.25;97222.47;4891614;28;20049;-80
2023/12/20 03:05:58;;;;;;;5.38;4.15;;;;;;;7.62;69.03;97239.78;4919374;28;20302;-81
2023/12/20 03:08:24;;;;;;;4.75;3.30;;;;;;;7.68;68.01;97244.09;4911707;28;21001;-80
2023/12/20 03:10:49;;;;;;;5.70;4.00;;;;;;;7.66;68.20;97220.22;4912814;28;20172;-81
2023/12/20 03:13:15;;;;;;;5.28;3.65;;;;;;;7.73;67.79;97216.72;4910650;28;20025;-81
2023/12/20 03:15:40;;;;;;;5.95;3.88;;;;;;;7.79;68.17;97226.97;4911829;28;20116;-80
2023/12/20 03:18:06;;;;;;;6.03;3.90;;;;;;;7.80;68.01;97232.97;4912536;28;20045;-81
2023/12/20 03:20:34;;;;;;;5.90;4.20;;;;;;;7.74;68.13;97239.03;4927935;28;20115;-80
2023/12/20 03:23:00;;;;;;;5.60;3.95;;;;;;;7.75;68.17;97243.22;4896505;28;20664;-80
2023/12/20 03:25:25;;;;;;;6.63;3.97;;;;;;;7.73;67.94;97234.84;4911844;28;20722;-80
2023/12/20 03:27:51;;;;;;;14.40;4.97;;;;;;;7.69;68.10;97237.09;4910604;28;20038;-81
2023/12/20 03:30:16;;;;;;;12.55;4.70;;;;;;;7.74;67.95;97231.25;4917060;28;20304;-80
2023/12/20 03:32:42;;;;;;;6.10;3.90;;;;;;;7.71;68.44;97223.94;4911414;28;20104;-80
2023/12/20 03:35:07;;;;;;;24.88;5.07;;;;;;;7.74;68.08;97233.84;4909457;28;20034;-80
2023/12/20 03:37:33;;;;;;;17.63;5.18;;;;;;;7.64;69.25;97239.56;4912606;28;20649;-81
2023/12/20 03:39:58;;;;;;;6.75;4.22;;;;;;;7.67;68.74;97239.91;4917332;28;20172;-80
2023/12/20 03:42:23;;;;;;;6.18;4.20;;;;;;;7.69;68.79;97240.50;4907908;28;20037;-81
2023/12/20 03:44:49;;;;;;;11.07;4.40;;;;;;;7.72;67.87;97241.06;4891848;28;20037;-80
2023/12/20 03:47:14;;;;;;;11.30;5.22;;;;;;;7.73;67.79;97250.41;4906844;28;20037;-81
2023/12/20 03:49:40;;;;;;;9.25;4.50;;;;;;;7.76;69.23;97244.78;4896372;28;20287;-80
2023/12/20 03:52:05;;;;;;;7.28;4.90;;;;;;;7.81;68.75;97252.66;4908761;28;20041;-81
2023/12/20 03:54:30;;;;;;;8.25;5.18;;;;;;;7.92;69.06;97245.91;4910225;28;20030;-80
2023/12/20 03:56:56;;;;;;;18.75;5.22;;;;;;;7.91;67.50;97249.53;4911294;28;20316;-81
2023/12/20 03:59:22;;;;;;;9.82;5.53;;;;;;;7.82;67.80;97252.44;4927124;28;20206;-81
2023/12/20 04:01:47;;;;;;;37.95;6.57;;;;;;;7.84;68.51;97252.22;4899037;28;20026;-81
2023/12/20 04:04:13;;;;;;;6.60;4.13;;;;;;;7.95;68.13;97250.66;4927392;28;20037;-81
2023/12/20 04:06:38;;;;;;;7.00;4.72;;;;;;;7.97;69.17;97262.38;4895204;28;20044;-80
2023/12/20 04:09:04;;;;;;;8.40;4.55;;;;;;;7.94;68.30;97267.25;4926251;28;20034;-81
2023/12/20 04:11:30;;;;;;;27.73;5.80;;;;;;;7.91;68.09;97258.09;4896739;28;21220;-81
2023/12/20 04:13:55;;;;;;;8.48;4.47;;;;;;;7.96;68.19;97258.19;4932734;28;20036;-80
2023/12/20 04:16:21;;;;;;;15.52;5.53;;;;;;;7.90;68.00;97264.31;4931902;28;20029;-80
2023/12/20 04:18:46;;;;;;;7.80;4.82;;;;;;;8.01;68.33;97267.91;4912364;28;20048;-81
2023/12/20 04:21:11;;;;;;;7.05;4.78;;;;;;;8.10;68.33;97265.75;4893828;28;20033;-81
2023/12/20 04:23:37;;;;;;;7.45;4.80;;;;;;;8.14;68.35;97261.69;4914651;28;20618;-80
2023/12/20 04:26:02;;;;;;;22.75;5.60;;;;;;;7.94;67.66;97268.00;4913319;28;20327;-81
2023/12/20 04:28:30;;;;;;;15.32;5.93;;;;;;;8.02;67.99;97267.69;4923438;28;20042;-80
2023/12/20 04:30:56;;;;;;;11.30;5.82;;;;;;;8.07;68.84;97273.00;4914923;28;20026;-80
2023/12/20 04:33:21;;;;;;;12.02;5.40;;;;;;;8.12;67.92;97274.09;4911879;28;20099;-81
2023/12/20 04:35:47;;;;;;;7.93;5.15;;;;;;;8.12;68.59;97268.91;4929063;28;20029;-80
2023/12/20 04:38:12;;;;;;;7.55;5.07;;;;;;;8.15;68.64;97279.63;4915076;28;20114;-80
2023/12/20 04:40:38;;;;;;;9.40;5.20;;;;;;;8.22;68.10;97287.28;4913838;28;20034;-81
2023/12/20 04:43:04;;;;;;;8.23;5.57;;;;;;;8.20;67.82;97291.94;4911236;28;20208;-81
2023/12/20 04:45:29;;;;;;;9.38;5.63;;;;;;;8.18;67.27;97286.97;4897905;28;20224;-80
2023/12/20 04:47:55;;;;;;;8.05;5.00;;;;;;;8.21;67.51;97290.94;4898293;28;20037;-80
2023/12/20 04:50:21;;;;;;;8.82;4.40;;;;;;;8.18;68.04;97294.75;4914141;28;20100;-80
2023/12/20 04:52:47;;;;;;;7.65;5.00;;;;;;;8.12;68.56;97287.84;4910250;28;20202;-80
2023/12/20 04:55:12;;;;;;;8.02;5.00;;;;;;;8.16;68.07;97291.59;4897648;28;20022;-81
2023/12/20 04:57:38;;;;;;;8.05;4.78;;;;;;;8.25;68.75;97295.41;4895352;28;20034;-81
2023/12/20 05:00:04;;;;;;;7.35;4.85;;;;;;;8.23;67.64;97294.84;4907433;28;20339;-81
2023/12/20 05:02:30;;;;;;;7.47;4.88;;;;;;;8.25;67.96;97297.22;4898980;28;20033;-80
2023/12/20 05:04:55;;;;;;;8.07;5.20;;;;;;;8.27;69.03;97302.97;4915291;28;20463;-81
2023/12/20 05:07:20;;;;;;;8.57;5.00;;;;;;;8.17;69.18;97311.31;4897950;28;20021;-80
2023/12/20 05:09:46;;;;;;;7.30;5.13;;;;;;;8.25;68.80;97305.00;4903979;28;20029;-81
2023/12/20 05:12:12;;;;;;;7.28;4.90;;;;;;;8.30;68.53;97309.53;4914239;28;20025;-80
2023/12/20 05:14:37;;;;;;;7.30;5.07;;;;;;;8.37;68.37;97315.38;4895440;28;20029;-81
2023/12/20 05:17:03;;;;;;;6.55;4.60;;;;;;;8.37;67.60;97312.78;4930737;28;20034;-80
2023/12/20 05:19:28;;;;;;;6.65;4.60;;;;;;;8.35;68.88;97302.63;4931166;28;20033;-80
2023/12/20 05:21:54;;;;;;;8.15;5.35;;;;;;;8.41;68.02;97298.34;4935227;28;20040;-80
2023/12/20 05:24:19;;;;;;;7.40;4.97;;;;;;;8.43;67.98;97304.94;4929208;28;20029;-80
2023/12/20 05:26:45;;;;;;;7.38;5.30;;;;;;;8.39;67.81;97305.56;4897695;28;20669;-80
2023/12/20 05:29:10;;;;;;;6.00;4.70;;;;;;;8.39;68.34;97319.31;4917755;28;20095;-80
2023/12/20 05:31:35;;;;;;;7.97;4.88;;;;;;;8.30;68.31;97328.47;4895154;28;20680;-81
2023/12/20 05:34:01;;;;;;;9.98;4.53;;;;;;;8.18;67.62;97330.28;4909602;28;20030;-80
2023/12/20 05:36:26;;;;;;;6.80;4.63;;;;;;;8.09;67.53;97329.00;4913304;28;21098;-80
2023/12/20 05:38:52;;;;;;;8.90;5.78;;;;;;;8.18;68.63;97338.06;4929684;28;20799;-79
2023/12/20 05:41:17;;;;;;;6.68;4.70;;;;;;;8.11;67.44;97339.97;4896268;28;20026;-79
2023/12/20 05:43:42;;;;;;;7.35;4.68;;;;;;;8.07;67.68;97337.81;4929884;28;20142;-79
2023/12/20 05:46:11;;;;;;;6.57;4.68;;;;;;;8.18;68.48;97343.25;4918644;28;20042;-80
2023/12/20 05:48:36;;;;;;;6.20;4.28;;;;;;;8.09;68.02;97352.34;4911821;28;20277;-79
2023/12/20 05:51:02;;;;;;;7.88;5.15;;;;;;;8.04;67.29;97351.22;4918936;28;20433;-79
2023/12/20 05:53:27;;;;;;;7.65;4.95;;;;;;;8.10;68.99;97365.09;4914328;28;20037;-80
2023/12/20 05:55:53;;;;;;;7.05;4.57;;;;;;;8.02;68.07;97358.44;4930335;28;20317;-80
2023/12/20 05:58:18;;;;;;;6.20;3.90;;;;;;;8.09;68.51;97373.91;4928990;28;20907;-80
2023/12/20 06:00:43;;;;;;;4.55;3.20;;;;;;;8.02;68.01;97378.38;4894383;28;20855;-80
2023/12/20 06:03:09;;;;;;;4.72;3.15;;;;;;;8.02;68.02;97381.78;4904722;28;20814;-80
2023/12/20 06:05:34;;;;;;;5.85;3.63;;;;;;;8.02;68.00;97374.00;4924613;28;20600;-80
2023/12/20 06:08:02;;;;;;;4.07;2.63;;;;;;;7.94;67.20;97382.09;4897967;28;20029;-80
2023/12/20 06:10:28;;;;;;;4.13;2.33;;;;;;;7.88;67.55;97372.59;4884886;28;20058;-80
2023/12/20 06:12:53;;;;;;;3.35;2.20;;;;;;;7.90;67.64;97378.38;4930135;28;20066;-80
2023/12/20 06:15:20;;;;;;;4.25;2.40;;;;;;;7.91;67.70;97374.75;4927861;28;20088;-80
2023/12/20 06:17:46;;;;;;;5.40;2.63;;;;;;;7.89;67.33;97369.00;4916067;28;20730;-80
2023/12/20 06:20:12;;;;;;;4.40;2.10;;;;;;;7.91;67.51;97387.72;4912708;28;20662;-79
2023/12/20 06:22:38;;;;;;;4.20;1.90;;;;;;;7.90;67.01;97388.75;4917976;28;20030;-80
2023/12/20 06:25:04;;;;;;;2.47;1.67;;;;;;;7.87;66.75;97389.19;4899573;28;20465;-80
2023/12/20 06:27:32;;;;;;;3.95;1.60;;;;;;;7.80;68.01;97401.44;4900934;28;20192;-80
2023/12/20 06:29:57;;;;;;;2.78;1.73;;;;;;;7.84;68.18;97395.59;4928066;28;20793;-79
2023/12/20 06:32:24;;;;;;;2.22;1.50;;;;;;;7.74;67.83;97384.19;4897058;28;20044;-80
2023/12/20 06:34:49;;;;;;;2.58;1.67;;;;;;;7.85;67.32;97393.81;4910379;28;20682;-80
2023/12/20 06:37:15;;;;;;;3.13;2.00;;;;;;;7.82;67.57;97392.44;4902314;28;20033;-80
2023/12/20 06:39:40;;;;;;;2.97;1.88;;;;;;;7.80;67.40;97389.28;4896466;28;20061;-80
2023/12/20 06:42:06;;;;;;;3.40;2.33;;;;;;;7.79;67.08;97385.09;4917724;28;20622;-80
2023/12/20 06:44:31;;;;;;;3.63;2.13;;;;;;;7.75;67.67;97385.78;4900945;28;20034;-80
2023/12/20 06:46:58;;;;;;;4.00;2.13;;;;;;;7.67;68.60;97397.22;4927730;28;20045;-80
2023/12/20 06:49:24;;;;;;;4.70;2.20;;;;;;;7.66;67.79;97400.84;4928200;28;20548;-80
2023/12/20 06:51:50;;;;;;;3.13;2.38;;;;;;;7.58;67.58;97404.50;4915515;28;20662;-81
2023/12/20 06:54:15;;;;;;;4.03;2.40;;;;;;;7.53;67.66;97399.19;4904988;28;20040;-81
2023/12/20 06:56:41;;;;;;;4.55;2.70;;;;;;;7.59;67.22;97393.16;4922373;28;20049;-81
2023/12/20 06:59:06;;;;;;;4.05;3.05;;;;;;;7.52;67.63;97392.41;4908470;28;20308;-81
2023/12/20 07:01:31;;;;;;;7.38;3.92;;;;;;;7.49;68.15;97393.66;4923418;28;20113;-80
2023/12/20 07:03:57;;;;;;;3.90;2.55;;;;;;;7.46;68.06;97408.84;4901738;28;20672;-80
2023/12/20 07:06:22;;;;;;;7.13;3.33;;;;;;;7.58;68.84;97414.88;4892937;28;20030;-80
2023/12/20 07:08:48;;;;;;;6.40;3.45;;;;;;;7.57;67.49;97412.50;4891716;28;20075;-81
2023/12/20 07:11:13;;;;;;;7.30;3.10;;;;;;;7.46;68.34;97408.84;4923627;28;20088;-80
2023/12/20 07:13:38;;;;;;;6.10;3.47;;;;;;;7.37;68.92;97402.38;4898849;28;20029;-81
2023/12/20 07:16:04;;;;;;;4.25;3.03;;;;;;;7.49;68.26;97400.66;4917750;28;20053;-81
2023/12/20 07:18:29;;;;;;;4.28;2.67;;;;;;;7.37;68.07;97408.38;4944942;28;20030;-80
2023/12/20 07:20:55;;;;;;;3.63;2.08;;;;;;;7.37;68.52;97413.53;4912199;28;20037;-80
2023/12/20 07:23:21;;;;;;;3.33;2.35;;;;;;;7.34;68.32;97419.16;4912280;28;20588;-80
2023/12/20 07:25:46;;;;;;;3.85;2.50;;;;;;;7.28;68.53;97418.22;4916794;28;20077;-80
2023/12/20 07:28:12;;;;;;;7.50;2.97;;;;;;;7.29;68.30;97409.44;4918553;28;20767;-80
2023/12/20 07:30:37;;;;;;;5.00;2.40;;;;;;;7.39;68.01;97405.56;4920951;28;20018;-80
2023/12/20 07:33:03;;;;;;;3.70;2.10;;;;;;;7.37;68.46;97408.38;4926987;28;20056;-79
2023/12/20 07:35:28;;;;;;;4.53;2.30;;;;;;;7.34;68.62;97423.56;4901567;28;20276;-80
2023/12/20 07:37:54;;;;;;;6.50;1.85;;;;;;;7.20;68.49;97420.31;4951460;28;20069;-80
2023/12/20 07:40:19;;;;;;;3.70;1.98;;;;;;;7.33;67.96;97430.50;4928716;28;20037;-80
2023/12/20 07:42:45;;;;;;;5.25;2.72;;;;;;;7.32;69.02;97429.72;4928634;28;20169;-79
2023/12/20 07:45:13;;;;;;;3.92;1.95;;;;;;;7.36;69.33;97437.06;4914671;28;20026;-80
2023/12/20 07:47:38;;;;;;;7.22;1.85;;;;;;;7.32;68.27;97427.13;4915486;28;20873;-80
2023/12/20 07:50:04;;;;;;;3.47;2.03;;;;;;;7.27;68.71;97442.53;4941059;28;20030;-81
2023/12/20 07:52:30;;;;;;;6.10;2.60;;;;;;;7.43;67.64;97442.97;4911467;28;20722;-80
2023/12/20 07:54:55;;;;;;;6.63;2.15;;;;;;;7.24;68.40;97440.38;4929077;28;20894;-80
2023/12/20 07:57:21;;;;;;;4.50;2.13;;;;;;;7.32;67.77;97458.22;4934479;28;20654;-80
2023/12/20 07:59:46;;;;;;;5.55;1.92;;;;;;;7.32;67.90;97462.63;4912234;28;20063;-80
2023/12/20 08:02:11;;;;;;;4.82;2.17;;;;;;;7.25;67.96;97457.50;4911188;28;20038;-81
2023/12/20 08:04:37;;;;;;;5.60;2.10;;;;;;;7.38;68.53;97460.94;4929172;28;20631;-79
2023/12/20 08:07:03;;;;;;;7.60;2.15;;;;;;;7.28;68.53;97449.31;4928390;28;20674;-79
2023/12/20 08:09:28;;;;;;;5.05;2.38;;;;;;;7.28;68.41;97469.22;4901750;28;20022;-80
2023/12/20 08:11:54;;;;;;;5.07;2.47;;;;;;;7.37;68.31;97467.13;4933903;28;20079;-78
2023/12/20 08:14:19;;;;;;;6.75;2.83;;;;;;;7.34;68.42;97460.59;4933458;28;20826;-80
2023/12/20 08:16:44;;;;;;;8.52;2.78;;;;;;;7.20;67.80;97464.34;4918577;28;20099;-80
2023/12/20 08:19:10;;;;;;;5.45;2.72;;;;;;;7.36;68.85;97475.91;4895576;28;20026;-80
2023/12/20 08:21:35;;;;;;;7.85;3.10;;;;;;;7.25;68.04;97483.41;4922690;28;20041;-80
2023/12/20 08:24:01;;;;;;;7.53;2.70;;;;;;;7.25;69.28;97478.22;4917415;28;20026;-80
2023/12/20 08:26:26;;;;;;;7.97;2.50;;;;;;;7.31;68.68;97481.75;4911675;28;20322;-79
2023/12/20 08:28:51;;;;;;;7.03;2.70;;;;;;;7.36;67.84;97483.69;4920735;28;20876;-80
2023/12/20 08:31:18;;;;;;;7.10;2.47;;;;;;;7.25;68.47;97475.63;4911356;28;20030;-80
2023/12/20 08:33:44;;;;;;;5.85;2.33;;;;;;;7.48;67.99;97481.97;4918911;28;20502;-80
2023/12/20 08:36:10;;;;;;;7.45;3.13;;;;;;;7.40;68.01;97484.84;4913616;28;20197;-80
2023/12/20 08:38:35;;;;;;;9.50;3.60;;;;;;;7.36;68.63;97484.47;4894967;28;20216;-80
2023/12/20 08:41:02;;;;;;;5.57;2.38;;;;;;;7.26;68.80;97473.81;4928761;28;20038;-80
2023/12/20 08:43:28;;;;;;;7.28;2.40;;;;;;;7.27;67.92;97480.59;4915096;28;20080;-81
2023/12/20 08:45:54;;;;;;;5.88;3.40;;;;;;;7.31;68.88;97487.69;4906989;28;20448;-80
2023/12/20 08:48:19;;;;;;;5.80;3.10;;;;;;;7.41;68.41;97487.22;4895105;28;20196;-80
2023/12/20 08:50:45;;;;;;;7.63;3.40;;;;;;;7.27;69.46;97476.19;4904242;28;20381;-81
2023/12/20 08:53:11;;;;;;;5.85;3.22;;;;;;;7.39;68.44;97486.66;4897067;28;20030;-80
2023/12/20 08:55:37;;;;;;;9.07;2.72;;;;;;;7.40;68.01;97484.84;4922165;28;20029;-81
2023/12/20 08:58:02;;;;;;;7.15;2.58;;;;;;;7.51;68.04;97486.72;4929502;28;20426;-80
2023/12/20 09:00:27;;;;;;;5.65;2.50;;;;;;;7.47;68.19;97477.78;4919589;28;20119;-81
2023/12/20 09:02:54;;;;;;;7.47;3.15;;;;;;;7.52;68.37;97474.53;4904017;28;20392;-80
2023/12/20 09:05:20;;;;;;;6.47;2.78;;;;;;;7.49;67.88;97470.59;4947842;28;20408;-80
2023/12/20 09:07:45;;;;;;;5.82;3.30;;;;;;;7.50;68.87;97474.75;4935556;28;20882;-82
2023/12/20 09:10:11;;;;;;;7.05;2.83;;;;;;;7.37;69.23;97480.09;4905143;28;20197;-81
2023/12/20 09:12:39;;;;;;;8.00;2.88;;;;;;;7.47;68.57;97478.59;4943856;28;20764;-80
2023/12/20 09:15:05;;;;;;;5.93;3.20;;;;;;;7.44;69.54;97479.00;4931221;28;20053;-81
2023/12/20 09:17:31;;;;;;;8.60;3.15;;;;;;;7.66;68.82;97494.91;4915026;28;20107;-80
2023/12/20 09:19:56;;;;;;;9.98;3.30;;;;;;;7.69;68.74;97491.09;4904423;28;20278;-82
2023/12/20 09:22:23;;;;;;;7.93;2.65;;;;;;;7.79;69.11;97498.34;4917721;28;20672;-80
2023/12/20 09:24:48;;;;;;;7.07;3.38;;;;;;;7.68;68.83;97494.69;4919202;28;20028;-80
2023/12/20 09:27:13;;;;;;;8.07;3.42;;;;;;;7.75;67.60;97503.19;4947661;28;20401;-80
2023/12/20 09:29:39;;;;;;;7.13;3.03;;;;;;;7.67;68.94;97496.47;4908096;28;20215;-81
2023/12/20 09:32:04;;;;;;;9.10;4.13;;;;;;;7.63;68.64;97479.78;4924833;28;20037;-79
2023/12/20 09:34:30;;;;;;;9.20;3.42;;;;;;;7.66;68.09;97494.13;4925057;28;20129;-80
2023/12/20 09:36:55;;;;;;;7.82;3.53;;;;;;;7.44;69.07;97493.78;4924719;28;20100;-80
2023/12/20 09:39:21;;;;;;;7.43;3.17;;;;;;;7.66;68.84;97481.97;4933707;28;20658;-81
2023/12/20 09:41:57;;;;;;;10.77;3.55;;;;;;;7.80;69.36;97481.81;4919727;28;20385;-79
2023/12/20 09:44:23;;;;;;;8.18;3.25;;;;;;;7.83;68.86;97479.56;4914283;28;20776;-80
2023/12/20 09:46:49;;;;;;;10.73;3.65;;;;;;;7.83;68.56;97486.53;4928331;28;20124;-81
2023/12/20 09:49:16;;;;;;;7.70;3.33;;;;;;;7.65;68.98;97490.72;4919013;28;20164;-80
2023/12/20 09:51:41;;;;;;;8.25;3.28;;;;;;;7.86;68.45;97483.50;4935855;28;20060;-80
2023/12/20 09:54:07;;;;;;;9.90;3.63;;;;;;;7.81;68.11;97475.59;4918850;28;20917;-80
2023/12/20 09:56:35;;;;;;;6.18;3.30;;;;;;;7.72;69.04;97471.72;4913391;28;20034;-80
2023/12/20 09:59:00;;;;;;;9.52;3.85;;;;;;;7.46;69.05;97483.97;4920553;28;20029;-81
2023/12/20 10:01:26;;;;;;;9.48;3.50;;;;;;;7.66;68.52;97474.19;4921401;28;20022;-81
2023/12/20 10:03:54;;;;;;;8.48;3.40;;;;;;;7.81;68.99;97473.81;4917887;28;20030;-82
2023/12/20 10:06:20;;;;;;;6.55;3.67;;;;;;;7.79;68.18;97468.03;4935104;28;20143;-80
2023/12/20 10:08:46;;;;;;;9.35;3.53;;;;;;;7.95;67.66;97471.03;4919042;28;20420;-81
2023/12/20 10:11:12;;;;;;;8.35;3.60;;;;;;;7.85;68.23;97467.16;4941141;28;20025;-80
2023/12/20 10:13:41;;;;;;;7.45;3.78;;;;;;;7.93;67.67;97473.84;4912416;28;20208;-81
2023/12/20 10:16:10;;;;;;;8.32;3.53;;;;;;;7.99;67.51;97472.97;4911293;28;20205;-81
2023/12/20 10:18:35;;;;;;;8.40;4.20;;;;;;;7.92;67.16;97467.09;4940735;28;20216;-82
2023/12/20 10:21:01;;;;;;;11.48;4.45;;;;;;;7.88;67.67;97463.34;4943887;28;20200;-79
2023/12/20 10:23:26;;;;;;;8.48;3.70;;;;;;;7.95;66.69;97469.25;4949005;28;20334;-80
2023/12/20 10:25:59;;;;;;;7.70;3.63;;;;;;;8.12;67.64;97471.97;4939109;28;20539;-80
2023/12/20 10:28:27;;;;;;;7.82;3.70;;;;;;;7.86;68.10;97462.75;4925377;28;20294;-81
2023/12/20 10:30:53;;;;;;;7.72;3.97;;;;;;;7.98;68.48;97471.38;4937473;28;20189;-81
2023/12/20 10:33:34;;;;;;;9.27;4.07;;;;;;;7.91;67.52;97462.13;4935691;28;20635;-81
2023/12/20 10:35:59;;;;;;;5.65;3.92;;;;;;;7.95;67.21;97455.47;4910218;28;20221;-82
2023/12/20 10:38:25;;;;;;;9.10;3.95;;;;;;;7.95;67.49;97460.66;4900200;28;20205;-81
2023/12/20 10:40:54;;;;;;;8.05;3.65;;;;;;;7.86;67.80;97461.00;4932281;28;20317;-80
2023/12/20 10:43:20;;;;;;;9.15;4.40;;;;;;;7.95;67.83;97465.84;4912154;28;20273;-81
2023/12/20 10:45:45;;;;;;;10.68;5.00;;;;;;;7.79;67.59;97456.88;4930600;28;20306;-80
2023/12/20 10:48:13;;;;;;;9.70;4.93;;;;;;;7.82;68.30;97459.03;4914483;28;20106;-80
2023/12/20 10:50:40;;;;;;;11.32;4.38;;;;;;;7.73;68.36;97455.16;4914540;28;20589;-80
2023/12/20 10:53:09;;;;;;;5.97;3.80;;;;;;;7.91;67.50;97449.16;4919842;28;20573;-81
2023/12/20 10:55:34;;;;;;;9.70;4.47;;;;;;;7.80;68.55;97448.09;4925169;28;20687;-80
2023/12/20 10:58:01;;;;;;;8.70;4.63;;;;;;;8.05;67.22;97446.16;4939670;28;20296;-77
2023/12/20 11:00:29;;;;;;;8.43;4.05;;;;;;;7.94;68.24;97428.75;4922180;28;20646;-80
2023/12/20 11:02:56;;;;;;;11.15;4.30;;;;;;;8.05;66.92;97446.16;4936779;28;20307;-79
2023/12/20 11:05:36;;;;;;;8.55;4.30;;;;;;;8.11;67.30;97444.47;4921192;28;20294;-80
2023/12/20 11:08:11;;;;;;;8.82;4.72;;;;;;;8.00;67.38;97440.84;4931221;28;20037;-80
2023/12/20 11:10:43;;;;;;;8.98;4.13;;;;;;;8.03;67.04;97440.38;4932333;28;20209;-80
2023/12/20 11:13:45;;;;;;;8.82;4.90;;;;;;;8.01;67.26;97432.03;4924599;28;20713;-79
2023/12/20 11:16:10;;;;;;;11.57;4.78;;;;;;;7.92;67.16;97428.19;4917205;28;20334;-79
2023/12/20 11:18:36;;;;;;;13.63;5.72;;;;;;;7.94;67.78;97430.56;4921722;28;20097;-78
2023/12/20 11:21:04;;;;;;;8.25;4.35;;;;;;;7.86;66.99;97429.88;4938578;28;20217;-79
2023/12/20 11:23:30;;;;;;;11.45;4.97;;;;;;;7.97;66.45;97430.09;4940805;28;20164;-80
2023/12/20 11:25:59;;;;;;;8.45;4.72;;;;;;;7.94;66.91;97433.16;4904124;28;20200;-79
2023/12/20 11:28:26;;;;;;;12.45;5.13;;;;;;;7.94;66.49;97423.56;4889952;28;20735;-81
2023/12/20 11:30:56;;;;;;;9.50;4.20;;;;;;;8.08;66.11;97426.78;4931317;28;20300;-81
2023/12/20 11:33:23;;;;;;;8.35;4.40;;;;;;;8.05;66.35;97419.44;4913440;28;20204;-80
2023/12/20 11:35:49;;;;;;;12.70;4.22;;;;;;;7.96;65.90;97421.53;4917928;28;20193;-80